Time;durP1;ratioP1;P1;durP2;ratioP2;P2;SDS_P1;SDS_P2;PMS_P1;PMS_P2;Temp;Humidity;BMP_temperature;BMP_pressure;BME280_temperature;BME280_humidity;BME280_pressure;Samples;Min_cycle;Max_cycle;Signal;HPM_P1;HPM_P2
2022/11/07 00:02:16;;;;;;;4.13;1.60;;;11.70;99.90;;;;;;5083412;28;20667;-39
2022/11/07 00:04:42;;;;;;;3.07;1.93;;;11.70;99.90;;;;;;5083620;28;20518;-39
2022/11/07 00:07:08;;;;;;;2.90;1.60;;;11.70;99.90;;;;;;5072654;28;20198;-38
2022/11/07 00:09:36;;;;;;;2.90;1.70;;;11.70;99.90;;;;;;5085226;28;20791;-38
2022/11/07 00:12:02;;;;;;;4.50;1.83;;;11.70;99.90;;;;;;5077064;28;20543;-38
2022/11/07 00:14:29;;;;;;;1.80;1.70;;;11.70;99.90;;;;;;5069772;28;20257;-38
2022/11/07 00:16:55;;;;;;;3.80;1.33;;;11.70;99.90;;;;;;5070149;28;20431;-39
2022/11/07 00:19:21;;;;;;;2.53;1.50;;;11.70;99.90;;;;;;5069550;28;20651;-39
2022/11/07 00:21:48;;;;;;;3.53;2.00;;;11.80;99.90;;;;;;5068767;28;20555;-38
2022/11/07 00:24:16;;;;;;;3.40;1.77;;;11.70;99.90;;;;;;5088272;28;20475;-38
2022/11/07 00:26:42;;;;;;;4.30;1.90;;;11.70;99.90;;;;;;5090366;28;20913;-38
2022/11/07 00:29:13;;;;;;;2.17;1.50;;;11.70;99.90;;;;;;5089731;28;20414;-38
2022/11/07 00:31:39;;;;;;;1.93;1.60;;;11.70;99.90;;;;;;5090109;28;20426;-39
2022/11/07 00:34:05;;;;;;;3.80;1.77;;;11.70;99.90;;;;;;5088055;28;20472;-38
2022/11/07 00:36:31;;;;;;;2.60;1.70;;;11.80;99.90;;;;;;5089809;28;20522;-39
2022/11/07 00:38:57;;;;;;;2.20;1.50;;;11.80;99.90;;;;;;5088267;28;20505;-39
2022/11/07 00:41:22;;;;;;;2.37;1.20;;;11.80;99.90;;;;;;5088592;28;20215;-38
2022/11/07 00:43:48;;;;;;;3.90;1.80;;;11.80;99.90;;;;;;5089853;28;20180;-38
2022/11/07 00:46:16;;;;;;;2.23;1.60;;;11.80;99.90;;;;;;5089915;28;20731;-38
2022/11/07 00:48:41;;;;;;;2.87;1.67;;;11.80;99.90;;;;;;5089535;28;20188;-38
2022/11/07 00:51:08;;;;;;;2.20;1.63;;;11.80;99.90;;;;;;5074274;28;20422;-38
2022/11/07 00:53:34;;;;;;;1.67;1.43;;;11.80;99.90;;;;;;5069371;28;20188;-39
2022/11/07 00:56:04;;;;;;;2.47;1.50;;;11.80;99.90;;;;;;5068016;28;20427;-38
2022/11/07 00:58:30;;;;;;;1.60;1.43;;;11.80;99.90;;;;;;5069379;28;20189;-38
2022/11/07 01:00:56;;;;;;;2.47;1.60;;;11.80;99.90;;;;;;5069520;28;20981;-38
2022/11/07 01:06:06;;;;;;;2.20;2.00;;;11.70;99.90;;;;;;5069281;28;20208;-39
2022/11/07 01:08:32;;;;;;;3.37;1.43;;;11.80;99.90;;;;;;5069179;28;20945;-39
2022/11/07 01:10:58;;;;;;;1.93;1.40;;;11.80;99.90;;;;;;5068747;28;20192;-42
2022/11/07 01:13:24;;;;;;;3.00;1.80;;;11.80;99.90;;;;;;5068513;28;20283;-38
2022/11/07 01:15:50;;;;;;;2.83;1.60;;;11.80;99.90;;;;;;5069375;28;20447;-39
2022/11/07 01:18:16;;;;;;;1.73;1.40;;;11.80;99.90;;;;;;5069221;28;20427;-38
2022/11/07 01:20:42;;;;;;;3.40;1.50;;;11.80;99.90;;;;;;5068627;28;20462;-38
2022/11/07 01:23:08;;;;;;;1.60;1.43;;;11.80;99.90;;;;;;5078906;28;20185;-38
2022/11/07 01:25:36;;;;;;;1.40;1.27;;;11.80;99.90;;;;;;5089681;28;20177;-38
2022/11/07 01:28:03;;;;;;;2.00;1.50;;;11.80;99.90;;;;;;5089946;28;20833;-38
2022/11/07 01:30:29;;;;;;;1.57;1.20;;;11.80;99.90;;;;;;5089052;28;20414;-38
2022/11/07 01:32:54;;;;;;;4.90;1.50;;;11.70;99.90;;;;;;5088293;28;20429;-38
2022/11/07 01:35:20;;;;;;;1.80;1.40;;;11.70;99.90;;;;;;5089184;28;20200;-38
2022/11/07 01:37:45;;;;;;;2.07;1.37;;;11.70;99.90;;;;;;5089810;28;20220;-39
2022/11/07 01:40:11;;;;;;;1.63;1.43;;;11.70;99.90;;;;;;5088979;28;20234;-38
2022/11/07 01:42:37;;;;;;;2.20;1.40;;;11.70;99.90;;;;;;5089415;28;20177;-38
2022/11/07 01:45:03;;;;;;;2.40;1.37;;;11.70;99.90;;;;;;5089363;28;20419;-39
2022/11/07 01:47:37;;;;;;;2.77;1.57;;;11.70;99.90;;;;;;5089468;28;20181;-38
2022/11/07 01:50:06;;;;;;;1.60;1.27;;;11.70;99.90;;;;;;5089046;28;20524;-39
2022/11/07 01:52:40;;;;;;;4.50;1.83;;;11.70;99.90;;;;;;5089347;28;20436;-38
2022/11/07 01:55:20;;;;;;;1.83;1.43;;;11.70;99.90;;;;;;5091907;28;21286;-39
2022/11/07 01:57:55;;;;;;;1.87;1.50;;;11.70;99.90;;;;;;5093243;28;20438;-38
2022/11/07 02:00:23;;;;;;;1.40;1.20;;;11.70;99.90;;;;;;5091346;28;20461;-38
2022/11/07 02:02:54;;;;;;;1.90;1.27;;;11.70;99.90;;;;;;5092645;28;20469;-39
2022/11/07 02:05:27;;;;;;;2.13;1.40;;;11.70;99.90;;;;;;5092670;28;20437;-38
2022/11/07 02:07:53;;;;;;;4.63;1.33;;;11.70;99.90;;;;;;5092769;28;20475;-38
2022/11/07 02:10:20;;;;;;;2.67;1.60;;;11.70;99.90;;;;;;5092566;28;20829;-38
2022/11/07 02:12:46;;;;;;;2.07;1.40;;;11.60;99.90;;;;;;5092767;28;20493;-38
2022/11/07 02:15:11;;;;;;;1.97;1.20;;;11.60;99.90;;;;;;5092858;28;20587;-39
2022/11/07 02:17:37;;;;;;;3.37;1.40;;;11.60;99.90;;;;;;5092629;28;20502;-38
2022/11/07 02:20:03;;;;;;;4.70;1.53;;;11.60;99.90;;;;;;5092218;28;20185;-39
2022/11/07 02:22:47;;;;;;;2.00;1.37;;;11.60;99.90;;;;;;5092306;28;20686;-39
2022/11/07 02:25:15;;;;;;;3.73;1.40;;;11.60;99.90;;;;;;5092387;28;20406;-39
2022/11/07 02:27:42;;;;;;;2.13;1.33;;;11.60;99.90;;;;;;5092592;28;20472;-38
2022/11/07 02:30:13;;;;;;;1.83;1.30;;;11.60;99.90;;;;;;5090729;28;20446;-39
2022/11/07 02:32:39;;;;;;;3.47;1.73;;;11.60;99.90;;;;;;5091235;28;20452;-38
2022/11/07 02:35:26;;;;;;;3.10;1.40;;;11.60;99.90;;;;;;5091798;28;20525;-39
2022/11/07 02:37:52;;;;;;;2.93;1.90;;;11.60;99.90;;;;;;5091905;28;20195;-38
2022/11/07 02:40:18;;;;;;;2.73;1.57;;;11.50;99.90;;;;;;5090375;28;20505;-38
2022/11/07 02:42:45;;;;;;;3.97;1.97;;;11.60;99.90;;;;;;5092067;28;20438;-38
2022/11/07 02:45:22;;;;;;;2.20;1.30;;;11.50;99.90;;;;;;5092139;28;20896;-38
2022/11/07 02:47:48;;;;;;;2.17;1.40;;;11.50;99.90;;;;;;5092413;28;20418;-38
2022/11/07 02:50:14;;;;;;;2.80;1.20;;;11.60;99.90;;;;;;5091405;28;20433;-38
2022/11/07 02:52:41;;;;;;;1.57;1.17;;;11.60;99.90;;;;;;5092007;28;20581;-39
2022/11/07 02:55:08;;;;;;;2.50;1.30;;;11.60;99.90;;;;;;5091940;28;20824;-38
2022/11/07 02:57:34;;;;;;;3.17;1.30;;;11.60;99.90;;;;;;5091963;28;20422;-39
2022/11/07 02:59:59;;;;;;;3.87;1.40;;;11.60;99.90;;;;;;5091388;28;20509;-39
2022/11/07 03:02:25;;;;;;;2.27;1.50;;;11.60;99.90;;;;;;5091767;28;20992;-38
2022/11/07 03:04:52;;;;;;;3.23;1.60;;;11.60;99.90;;;;;;5091185;28;20184;-38
2022/11/07 03:07:17;;;;;;;1.90;1.43;;;11.60;99.90;;;;;;5090908;28;20418;-38
2022/11/07 03:09:43;;;;;;;1.90;1.70;;;11.60;99.90;;;;;;5091482;28;20414;-38
2022/11/07 03:12:09;;;;;;;2.23;1.20;;;11.70;99.90;;;;;;5091559;28;20199;-38
2022/11/07 03:14:35;;;;;;;3.03;1.63;;;11.70;99.90;;;;;;5091341;28;20183;-38
2022/11/07 03:17:01;;;;;;;2.70;1.47;;;11.70;99.90;;;;;;5091439;28;20452;-39
2022/11/07 03:19:27;;;;;;;5.40;1.83;;;11.70;99.90;;;;;;5090923;28;20427;-38
2022/11/07 03:21:52;;;;;;;4.90;1.77;;;11.70;99.90;;;;;;5091416;28;20256;-40
2022/11/07 03:24:18;;;;;;;3.37;1.40;;;11.70;99.90;;;;;;5091075;28;20345;-38
2022/11/07 03:26:44;;;;;;;1.83;1.43;;;11.70;99.90;;;;;;5091323;28;20630;-38
2022/11/07 03:29:09;;;;;;;6.00;1.93;;;11.80;99.90;;;;;;5091013;28;20184;-39
2022/11/07 03:31:35;;;;;;;4.00;2.30;;;11.80;99.90;;;;;;5091243;28;20183;-38
2022/11/07 03:34:01;;;;;;;2.73;1.50;;;11.80;99.90;;;;;;5089700;28;20282;-39
2022/11/07 03:36:27;;;;;;;4.80;1.80;;;11.80;99.90;;;;;;5091146;28;20748;-38
2022/11/07 03:38:52;;;;;;;3.83;1.73;;;11.80;99.90;;;;;;5090590;28;20700;-38
2022/11/07 03:41:18;;;;;;;5.20;1.87;;;11.70;99.90;;;;;;5091081;28;20212;-38
2022/11/07 03:43:44;;;;;;;5.20;2.30;;;11.80;99.90;;;;;;5089425;28;20643;-38
2022/11/07 03:46:11;;;;;;;4.70;1.57;;;11.80;99.90;;;;;;5091060;28;20230;-38
2022/11/07 03:48:37;;;;;;;5.17;2.73;;;11.80;99.90;;;;;;5090247;28;20467;-38
2022/11/07 03:51:04;;;;;;;8.70;1.50;;;11.80;99.90;;;;;;5091001;28;20874;-38
2022/11/07 03:53:29;;;;;;;3.93;1.50;;;11.80;99.90;;;;;;5090487;28;20868;-39
2022/11/07 03:55:56;;;;;;;3.37;1.70;;;11.80;99.90;;;;;;5089435;28;20418;-39
2022/11/07 03:58:22;;;;;;;3.67;2.23;;;11.80;99.90;;;;;;5090761;28;20184;-38
2022/11/07 04:00:48;;;;;;;3.20;1.50;;;11.80;99.90;;;;;;5090454;28;20454;-38
2022/11/07 04:03:14;;;;;;;2.60;1.67;;;11.80;99.90;;;;;;5090317;28;21061;-38
2022/11/07 04:05:39;;;;;;;4.53;1.73;;;11.80;99.90;;;;;;5090361;28;20666;-38
2022/11/07 04:08:05;;;;;;;6.40;1.93;;;11.80;99.90;;;;;;5090804;28;20176;-39
2022/11/07 04:10:31;;;;;;;4.33;2.10;;;11.80;99.90;;;;;;5090140;28;20208;-38
2022/11/07 04:18:27;;;;;;;4.57;2.20;;;11.80;99.90;;;;;;5090101;28;20422;-38
2022/11/07 04:20:53;;;;;;;4.30;1.73;;;11.70;99.90;;;;;;5090344;28;20453;-38
2022/11/07 04:23:18;;;;;;;2.60;1.40;;;11.70;99.90;;;;;;5090149;28;20222;-39
2022/11/07 04:28:28;;;;;;;4.20;1.80;;;11.70;99.90;;;;;;5088879;28;20219;-38
2022/11/07 04:30:54;;;;;;;5.63;1.70;;;11.80;99.90;;;;;;5090398;28;21119;-38
2022/11/07 04:33:19;;;;;;;6.43;1.60;;;11.80;99.90;;;;;;5089088;28;20553;-39
2022/11/07 04:35:45;;;;;;;5.90;1.93;;;11.80;99.90;;;;;;5090363;28;20654;-38
2022/11/07 04:38:10;;;;;;;2.20;1.50;;;11.80;99.90;;;;;;5090206;28;20279;-38
2022/11/07 04:40:36;;;;;;;2.20;1.57;;;11.80;99.90;;;;;;5089568;28;20258;-38
2022/11/07 04:43:07;;;;;;;3.70;1.60;;;11.80;99.90;;;;;;5089859;28;20176;-38
2022/11/07 04:45:35;;;;;;;1.93;1.50;;;11.80;99.90;;;;;;5090156;28;20255;-38
2022/11/07 04:48:01;;;;;;;4.23;2.37;;;11.80;99.90;;;;;;5090105;28;20441;-38
2022/11/07 04:50:26;;;;;;;2.20;1.40;;;11.80;99.90;;;;;;5089681;28;20792;-38
2022/11/07 04:52:52;;;;;;;4.57;1.90;;;11.80;99.90;;;;;;5089650;28;20218;-38
2022/11/07 04:55:24;;;;;;;2.40;1.60;;;11.80;99.90;;;;;;5089727;28;20204;-39
2022/11/07 04:57:50;;;;;;;5.33;1.47;;;11.80;99.90;;;;;;5089955;28;20176;-38
2022/11/07 05:00:18;;;;;;;2.90;2.00;;;11.70;99.90;;;;;;5089482;28;20964;-38
2022/11/07 05:02:44;;;;;;;2.80;1.73;;;11.80;99.90;;;;;;5089850;28;20419;-38
2022/11/07 05:05:10;;;;;;;3.50;1.30;;;11.80;99.90;;;;;;5089659;28;21329;-38
2022/11/07 05:07:36;;;;;;;2.30;1.70;;;11.80;99.90;;;;;;5089705;28;20410;-38
2022/11/07 05:10:03;;;;;;;4.43;1.63;;;11.80;99.90;;;;;;5089466;28;20771;-39
2022/11/07 05:12:29;;;;;;;3.67;1.43;;;11.70;99.90;;;;;;5089824;28;20175;-38
2022/11/07 05:14:55;;;;;;;3.60;1.50;;;11.80;99.90;;;;;;5089648;28;20449;-39
2022/11/07 05:17:20;;;;;;;5.57;1.70;;;11.80;99.90;;;;;;5089849;28;20226;-38
2022/11/07 05:19:46;;;;;;;3.57;2.00;;;11.80;99.90;;;;;;5089179;28;20564;-38
2022/11/07 05:24:56;;;;;;;3.23;1.57;;;11.80;99.90;;;;;;5089681;28;20429;-38
2022/11/07 05:27:22;;;;;;;3.90;2.10;;;11.80;99.90;;;;;;5089868;28;20411;-38
2022/11/07 05:29:48;;;;;;;5.03;1.67;;;11.80;99.90;;;;;;5091552;28;20172;-38
2022/11/07 05:32:14;;;;;;;2.53;1.43;;;11.80;99.90;;;;;;5092753;28;20217;-39
2022/11/07 05:34:39;;;;;;;5.23;1.60;;;11.80;99.90;;;;;;5093216;28;20180;-38
2022/11/07 05:37:10;;;;;;;4.00;1.93;;;11.80;99.90;;;;;;5092065;28;20989;-39
2022/11/07 05:39:36;;;;;;;4.90;1.60;;;11.80;99.90;;;;;;5093280;28;20191;-39
2022/11/07 05:42:02;;;;;;;3.77;1.60;;;11.70;99.90;;;;;;5090187;28;20543;-39
2022/11/07 05:44:29;;;;;;;7.03;1.70;;;11.80;99.90;;;;;;5080273;28;20851;-38
2022/11/07 05:46:55;;;;;;;2.23;1.40;;;11.80;99.90;;;;;;5093113;28;20426;-38
2022/11/07 05:49:22;;;;;;;5.17;1.70;;;11.80;99.90;;;;;;5092572;28;20917;-38
2022/11/07 05:51:48;;;;;;;3.73;1.50;;;11.80;99.90;;;;;;5093115;28;20510;-39
2022/11/07 05:54:13;;;;;;;4.37;1.30;;;11.80;99.90;;;;;;5091157;28;20894;-38
2022/11/07 05:56:39;;;;;;;5.77;1.50;;;11.80;99.90;;;;;;5092996;28;20726;-38
2022/11/07 05:59:05;;;;;;;4.87;1.50;;;11.80;99.90;;;;;;5092761;28;20764;-38
2022/11/07 06:01:31;;;;;;;4.10;1.20;;;11.80;99.90;;;;;;5093148;28;20209;-39
2022/11/07 06:03:56;;;;;;;2.90;1.47;;;11.90;99.90;;;;;;5092414;28;20930;-38
2022/11/07 06:06:22;;;;;;;5.03;1.70;;;11.90;99.90;;;;;;5091618;28;20257;-39
2022/11/07 06:08:48;;;;;;;4.00;1.83;;;11.90;99.90;;;;;;5092614;28;20181;-38
2022/11/07 06:11:14;;;;;;;6.97;2.47;;;11.90;99.90;;;;;;5092948;28;20188;-38
2022/11/07 06:13:39;;;;;;;5.50;1.90;;;11.90;99.90;;;;;;5092610;28;20662;-39
2022/11/07 06:16:05;;;;;;;4.50;2.03;;;11.90;99.90;;;;;;5099123;28;20425;-39
2022/11/07 06:18:31;;;;;;;4.20;1.63;;;11.90;99.90;;;;;;5103829;28;20188;-38
2022/11/07 06:21:00;;;;;;;3.40;1.83;;;11.90;99.90;;;;;;5095740;28;20457;-38
2022/11/07 06:23:26;;;;;;;4.57;1.43;;;11.90;99.90;;;;;;5092525;28;20743;-39
2022/11/07 06:25:51;;;;;;;6.00;1.70;;;11.90;99.90;;;;;;5092574;28;20463;-38
2022/11/07 06:28:17;;;;;;;4.13;1.53;;;11.90;99.90;;;;;;5091968;28;20276;-38
2022/11/07 06:30:43;;;;;;;6.57;2.00;;;11.90;99.90;;;;;;5091462;28;20192;-39
2022/11/07 06:33:15;;;;;;;3.53;1.80;;;11.90;99.90;;;;;;5091151;28;20173;-38
2022/11/07 06:35:41;;;;;;;2.80;2.00;;;11.90;99.90;;;;;;5092285;28;20419;-39
2022/11/07 06:38:09;;;;;;;4.40;1.70;;;12.00;99.90;;;;;;5092424;28;21254;-39
2022/11/07 06:40:35;;;;;;;7.90;2.23;;;12.00;99.90;;;;;;5091798;28;20473;-39
2022/11/07 06:43:10;;;;;;;5.03;2.10;;;12.00;99.90;;;;;;5092043;28;20980;-38
2022/11/07 06:45:36;;;;;;;4.10;2.07;;;12.00;99.90;;;;;;5089401;28;21248;-39
2022/11/07 06:48:02;;;;;;;5.07;1.90;;;12.00;99.90;;;;;;5085998;28;20765;-39
2022/11/07 06:50:27;;;;;;;6.73;1.70;;;12.10;99.90;;;;;;5091808;28;20419;-38
2022/11/07 06:52:53;;;;;;;2.20;1.27;;;12.10;99.90;;;;;;5092349;28;20425;-39
2022/11/07 06:55:20;;;;;;;3.37;1.50;;;12.10;99.90;;;;;;5092178;28;20180;-39
2022/11/07 06:57:47;;;;;;;7.00;2.07;;;12.10;99.90;;;;;;5097298;28;20191;-38
2022/11/07 07:00:13;;;;;;;3.90;1.70;;;12.20;99.90;;;;;;5099547;28;20438;-38
2022/11/07 07:02:39;;;;;;;2.40;1.30;;;12.20;99.90;;;;;;5090232;28;20770;-39
2022/11/07 07:05:05;;;;;;;2.47;1.40;;;12.20;99.90;;;;;;5083306;28;20477;-38
2022/11/07 07:07:31;;;;;;;3.50;1.70;;;12.20;99.90;;;;;;5090827;28;20291;-39
2022/11/07 07:09:56;;;;;;;4.53;2.23;;;12.20;99.90;;;;;;5091358;28;20510;-39
2022/11/07 07:12:22;;;;;;;7.20;1.93;;;12.20;99.90;;;;;;5094536;28;20192;-39
2022/11/07 07:14:48;;;;;;;5.80;1.53;;;12.30;99.90;;;;;;5100231;28;20246;-39
2022/11/07 07:17:14;;;;;;;3.03;1.40;;;12.30;99.90;;;;;;5088338;28;20679;-39
2022/11/07 07:19:40;;;;;;;8.53;1.90;;;12.30;99.90;;;;;;5090578;28;20433;-38
2022/11/07 07:22:11;;;;;;;4.03;1.50;;;12.40;99.90;;;;;;5090896;28;20483;-38
2022/11/07 07:24:37;;;;;;;4.47;2.00;;;12.40;99.90;;;;;;5100903;28;20259;-39
2022/11/07 07:27:02;;;;;;;3.83;1.57;;;12.40;99.90;;;;;;5091334;28;20509;-39
2022/11/07 07:29:28;;;;;;;4.20;1.70;;;12.40;99.90;;;;;;5089938;28;20216;-39
2022/11/07 07:31:54;;;;;;;7.93;2.00;;;12.40;99.90;;;;;;5095245;28;20638;-39
2022/11/07 07:34:19;;;;;;;4.80;1.80;;;12.40;99.90;;;;;;5105473;28;20192;-39
2022/11/07 07:36:45;;;;;;;4.57;1.30;;;12.50;99.90;;;;;;5097525;28;20843;-38
2022/11/07 07:39:11;;;;;;;4.60;1.60;;;12.40;99.90;;;;;;5090830;28;20185;-38
2022/11/07 07:41:36;;;;;;;5.23;1.77;;;12.50;99.90;;;;;;5091040;28;20239;-39
2022/11/07 07:44:02;;;;;;;5.07;1.73;;;12.50;99.90;;;;;;5090773;28;20192;-39
2022/11/07 07:46:28;;;;;;;4.97;1.90;;;12.50;99.90;;;;;;5092318;28;20195;-39
2022/11/07 07:48:53;;;;;;;4.87;1.80;;;12.50;99.90;;;;;;5090845;28;20650;-39
2022/11/07 07:51:19;;;;;;;3.70;1.67;;;12.50;99.90;;;;;;5094521;28;20192;-39
2022/11/07 07:53:45;;;;;;;3.10;1.53;;;12.60;99.90;;;;;;5110446;28;20192;-38
2022/11/07 07:56:10;;;;;;;7.20;1.80;;;12.60;99.90;;;;;;5110993;28;20221;-38
2022/11/07 07:58:36;;;;;;;5.83;1.80;;;12.60;99.90;;;;;;5110806;28;20195;-38
2022/11/07 08:01:08;;;;;;;3.60;2.10;;;12.60;99.90;;;;;;5110898;28;20226;-39
2022/11/07 08:03:34;;;;;;;5.13;1.73;;;12.70;99.90;;;;;;5111162;28;20183;-39
2022/11/07 08:06:00;;;;;;;3.90;1.80;;;12.70;99.90;;;;;;5090740;28;20445;-39
2022/11/07 08:08:25;;;;;;;6.30;1.70;;;12.70;99.90;;;;;;5101536;28;20185;-38
2022/11/07 08:10:53;;;;;;;3.00;1.60;;;12.70;99.90;;;;;;5099252;28;20189;-39
2022/11/07 08:13:23;;;;;;;4.20;1.90;;;12.70;99.90;;;;;;5101033;28;20636;-39
2022/11/07 08:15:50;;;;;;;5.37;1.73;;;12.80;99.90;;;;;;5100180;28;20433;-38
2022/11/07 08:18:18;;;;;;;3.63;1.60;;;12.80;99.90;;;;;;5101244;28;20456;-39
2022/11/07 08:20:44;;;;;;;3.80;1.10;;;12.90;99.90;;;;;;5092715;28;20978;-38
2022/11/07 08:23:10;;;;;;;4.33;1.80;;;12.90;99.90;;;;;;5090037;28;20511;-38
2022/11/07 08:25:37;;;;;;;4.23;1.83;;;12.90;99.90;;;;;;5091627;28;20421;-38
2022/11/07 08:28:04;;;;;;;3.17;1.87;;;12.90;99.90;;;;;;5093278;28;20928;-39
2022/11/07 08:30:30;;;;;;;2.47;1.30;;;12.90;99.90;;;;;;5090023;28;20844;-38
2022/11/07 08:32:59;;;;;;;10.17;2.43;;;12.90;99.90;;;;;;5088487;28;20445;-39
2022/11/07 08:35:25;;;;;;;9.43;1.97;;;13.00;99.90;;;;;;5090305;28;20772;-38
2022/11/07 08:37:53;;;;;;;6.30;1.97;;;13.00;99.90;;;;;;5090289;28;20414;-39
2022/11/07 08:40:19;;;;;;;3.73;1.60;;;13.00;99.90;;;;;;5108016;28;20198;-39
2022/11/07 08:42:45;;;;;;;7.23;1.90;;;13.00;99.90;;;;;;5109623;28;20422;-38
2022/11/07 08:45:11;;;;;;;5.33;1.73;;;13.00;99.90;;;;;;5109485;28;20415;-38
2022/11/07 08:47:36;;;;;;;7.20;2.00;;;13.00;99.90;;;;;;5110446;28;20176;-39
2022/11/07 08:50:03;;;;;;;3.47;1.40;;;13.00;99.90;;;;;;5108671;28;20172;-39
2022/11/07 08:52:29;;;;;;;3.67;1.70;;;13.00;99.90;;;;;;5110273;28;20440;-39
2022/11/07 08:54:54;;;;;;;8.30;2.53;;;13.10;99.90;;;;;;5110093;28;20421;-39
2022/11/07 08:57:20;;;;;;;4.23;1.53;;;13.00;99.90;;;;;;5110242;28;20266;-38
2022/11/07 08:59:46;;;;;;;3.90;1.70;;;13.10;99.90;;;;;;5110071;28;20191;-39
2022/11/07 09:02:11;;;;;;;5.73;2.10;;;13.00;99.90;;;;;;5110192;28;20717;-39
2022/11/07 09:04:37;;;;;;;5.13;1.50;;;13.10;99.90;;;;;;5103695;28;20976;-38
2022/11/07 09:07:03;;;;;;;6.70;1.70;;;13.10;99.90;;;;;;5093826;28;20230;-39
2022/11/07 09:09:29;;;;;;;4.17;2.03;;;13.20;99.90;;;;;;5093658;28;20599;-39
2022/11/07 09:11:54;;;;;;;3.03;1.60;;;13.20;99.90;;;;;;5094002;28;20789;-39
2022/11/07 09:14:20;;;;;;;4.40;1.87;;;13.20;99.90;;;;;;5093817;28;20191;-38
2022/11/07 09:16:46;;;;;;;5.77;1.67;;;13.20;99.90;;;;;;5093948;28;20218;-39
2022/11/07 09:19:12;;;;;;;5.67;1.73;;;13.20;99.90;;;;;;5093717;28;20979;-39
2022/11/07 09:21:37;;;;;;;5.90;2.10;;;13.20;99.90;;;;;;5093661;28;20208;-38
2022/11/07 09:24:03;;;;;;;5.80;1.77;;;13.20;99.90;;;;;;5093457;28;20180;-38
2022/11/07 09:26:29;;;;;;;4.27;1.50;;;13.30;99.90;;;;;;5093892;28;20581;-39
2022/11/07 09:28:55;;;;;;;4.30;1.73;;;13.30;99.90;;;;;;5093600;28;20418;-39
2022/11/07 09:31:21;;;;;;;5.13;2.67;;;13.40;99.90;;;;;;5093757;28;20267;-39
2022/11/07 09:33:46;;;;;;;5.87;1.60;;;13.40;99.90;;;;;;5091925;28;20635;-39
2022/11/07 09:36:12;;;;;;;5.13;2.10;;;13.50;99.90;;;;;;5093716;28;20505;-38
2022/11/07 09:38:38;;;;;;;4.73;1.53;;;13.50;99.90;;;;;;5092851;28;20177;-38
2022/11/07 09:41:14;;;;;;;4.67;1.60;;;13.50;99.90;;;;;;5093466;28;20242;-39
2022/11/07 09:43:42;;;;;;;9.53;2.30;;;13.60;99.90;;;;;;5093307;28;20182;-38
2022/11/07 09:46:11;;;;;;;5.60;2.10;;;13.60;99.90;;;;;;5093364;28;20414;-39
2022/11/07 09:48:43;;;;;;;5.57;2.00;;;13.60;99.90;;;;;;5092966;28;21025;-38
2022/11/07 09:51:14;;;;;;;3.87;1.67;;;13.60;99.90;;;;;;5093347;28;20948;-39
2022/11/07 09:53:45;;;;;;;3.77;2.17;;;13.60;99.90;;;;;;5092993;28;20539;-39
2022/11/07 09:56:12;;;;;;;8.50;2.00;;;13.60;99.90;;;;;;5093417;28;20894;-39
2022/11/07 09:58:50;;;;;;;6.53;1.87;;;13.70;99.90;;;;;;5092668;28;20422;-38
2022/11/07 10:01:17;;;;;;;4.87;1.73;;;13.60;99.90;;;;;;5093096;28;20460;-38
2022/11/07 10:03:43;;;;;;;4.60;1.80;;;13.60;99.90;;;;;;5092770;28;20410;-39
2022/11/07 10:06:17;;;;;;;8.10;2.20;;;13.70;99.90;;;;;;5092752;28;20434;-39
2022/11/07 10:08:59;;;;;;;4.17;1.73;;;13.60;99.90;;;;;;5092771;28;20421;-39
2022/11/07 10:11:55;;;;;;;4.90;1.80;;;13.70;99.90;;;;;;5092902;28;20418;-38
2022/11/07 10:15:04;;;;;;;6.60;2.20;;;13.70;99.90;;;;;;5092334;28;20768;-38
2022/11/07 10:17:34;;;;;;;7.30;2.20;;;13.60;99.90;;;;;;5091699;28;20410;-39
2022/11/07 10:20:24;;;;;;;12.73;2.20;;;13.60;99.90;;;;;;5092284;28;20406;-39
2022/11/07 10:23:14;;;;;;;6.03;1.80;;;13.50;99.90;;;;;;5092649;28;20419;-39
2022/11/07 10:26:07;;;;;;;4.20;1.57;;;13.50;99.90;;;;;;5092784;28;20477;-39
2022/11/07 10:28:45;;;;;;;3.37;1.97;;;13.50;99.90;;;;;;5092239;28;20463;-39
2022/11/07 10:31:13;;;;;;;2.87;1.73;;;13.40;99.90;;;;;;5092238;28;20446;-39
2022/11/07 10:33:44;;;;;;;6.73;2.30;;;13.30;99.90;;;;;;5089630;28;20434;-39
2022/11/07 10:36:20;;;;;;;3.83;1.63;;;13.40;99.90;;;;;;5091165;28;20418;-39
2022/11/07 10:38:45;;;;;;;5.50;2.07;;;13.30;99.90;;;;;;5090570;28;20790;-39
2022/11/07 10:41:17;;;;;;;4.70;2.60;;;13.30;99.90;;;;;;5090837;28;20454;-39
2022/11/07 10:43:45;;;;;;;5.03;2.00;;;13.30;99.90;;;;;;5090464;28;20267;-39
2022/11/07 10:46:43;;;;;;;4.83;2.03;;;13.30;99.90;;;;;;5090745;28;20980;-39
2022/11/07 10:49:20;;;;;;;3.87;2.17;;;13.10;99.90;;;;;;5089921;28;20419;-39
2022/11/07 10:51:46;;;;;;;5.47;2.17;;;13.10;99.90;;;;;;5089458;28;20422;-39
2022/11/07 10:54:24;;;;;;;5.83;2.27;;;13.10;99.90;;;;;;5090320;28;20515;-39
2022/11/07 10:57:11;;;;;;;8.47;2.83;;;13.10;99.90;;;;;;5090299;28;20412;-39
2022/11/07 10:59:40;;;;;;;6.17;3.30;;;13.10;99.90;;;;;;5089554;28;20418;-39
2022/11/07 11:02:30;;;;;;;3.30;2.63;;;13.10;99.90;;;;;;5090304;28;20557;-39
2022/11/07 11:05:01;;;;;;;3.63;2.13;;;13.10;99.90;;;;;;5085119;28;20694;-38
2022/11/07 11:07:39;;;;;;;7.40;2.20;;;13.10;99.90;;;;;;5090193;28;20418;-39
2022/11/07 11:10:29;;;;;;;2.57;2.03;;;13.20;99.90;;;;;;5092269;28;20946;-39
2022/11/07 11:12:56;;;;;;;5.40;2.80;;;13.20;99.90;;;;;;5109348;28;20402;-39
2022/11/07 11:15:26;;;;;;;6.20;2.03;;;13.20;99.90;;;;;;5093505;27;20414;-38
2022/11/07 11:18:18;;;;;;;4.13;2.23;;;13.20;99.90;;;;;;5100010;28;20951;-39
2022/11/07 11:21:01;;;;;;;6.17;2.87;;;13.20;99.90;;;;;;5093192;28;20470;-39
2022/11/07 11:23:35;;;;;;;8.20;2.33;;;13.20;99.90;;;;;;5097662;28;20418;-39
2022/11/07 11:26:05;;;;;;;4.10;2.33;;;13.20;99.90;;;;;;5092517;28;20407;-39
2022/11/07 11:28:33;;;;;;;7.47;2.17;;;13.20;99.90;;;;;;5089108;28;20421;-39
2022/11/07 11:31:14;;;;;;;7.00;2.57;;;13.30;99.90;;;;;;5089419;28;20411;-39
2022/11/07 11:33:46;;;;;;;4.63;2.23;;;13.30;99.90;;;;;;5088088;28;20850;-38
2022/11/07 11:36:26;;;;;;;7.37;2.70;;;13.30;99.90;;;;;;5089284;28;20445;-39
2022/11/07 11:38:53;;;;;;;5.80;2.70;;;13.40;99.90;;;;;;5089486;28;20495;-39
2022/11/07 11:41:42;;;;;;;6.80;3.00;;;13.40;99.90;;;;;;5091365;28;20719;-38
2022/11/07 11:44:40;;;;;;;7.93;2.83;;;13.40;99.90;;;;;;5105790;28;20410;-39
2022/11/07 11:47:21;;;;;;;6.80;2.73;;;13.50;99.90;;;;;;5098743;28;20416;-39
2022/11/07 11:49:57;;;;;;;9.60;3.20;;;13.60;99.90;;;;;;5087383;28;20421;-38
2022/11/07 11:52:24;;;;;;;7.07;2.67;;;13.60;99.90;;;;;;5088420;28;20826;-39
2022/11/07 11:54:51;;;;;;;9.77;3.00;;;13.70;99.90;;;;;;5088479;28;20980;-38
2022/11/07 11:57:28;;;;;;;7.23;2.43;;;13.70;99.90;;;;;;5089201;28;20410;-38
2022/11/07 12:00:03;;;;;;;7.30;3.13;;;13.80;99.90;;;;;;5089054;28;20942;-39
2022/11/07 12:02:47;;;;;;;6.13;2.33;;;13.70;99.90;;;;;;5088647;28;20449;-39
2022/11/07 12:05:43;;;;;;;4.33;2.30;;;13.70;99.90;;;;;;5089051;28;20475;-38
2022/11/07 12:08:51;;;;;;;6.53;2.83;;;13.70;99.90;;;;;;5089511;28;20417;-39
2022/11/07 12:11:27;;;;;;;5.93;2.40;;;13.70;99.90;;;;;;5088958;28;20414;-38
2022/11/07 12:14:11;;;;;;;5.63;2.47;;;13.70;99.90;;;;;;5088972;28;20410;-39
2022/11/07 12:16:39;;;;;;;9.90;3.80;;;13.70;99.90;;;;;;5088963;28;20437;-39
2022/11/07 12:19:19;;;;;;;5.50;2.83;;;13.80;99.90;;;;;;5088499;28;20774;-38
2022/11/07 12:22:14;;;;;;;5.80;3.17;;;13.70;99.90;;;;;;5088912;28;20453;-39
2022/11/07 12:24:51;;;;;;;4.43;2.23;;;13.70;99.90;;;;;;5068307;28;20410;-39
2022/11/07 12:27:44;;;;;;;4.57;2.33;;;13.70;99.90;;;;;;5068408;28;20442;-39
2022/11/07 12:30:34;;;;;;;4.67;2.50;;;13.70;99.90;;;;;;5039405;28;20411;-39
2022/11/07 12:33:06;;;;;;;6.97;2.43;;;13.80;99.90;;;;;;5066706;28;20399;-39
2022/11/07 12:35:51;;;;;;;6.63;2.67;;;13.80;99.90;;;;;;5068149;28;20391;-39
2022/11/07 12:38:41;;;;;;;5.80;2.40;;;13.90;99.90;;;;;;5068374;28;20403;-38
2022/11/07 12:41:33;;;;;;;5.23;2.30;;;14.00;99.90;;;;;;5066814;28;21088;-39
2022/11/07 12:44:37;;;;;;;9.40;2.37;;;14.10;99.90;;;;;;5067861;28;20415;-39
2022/11/07 12:47:17;;;;;;;6.33;2.10;;;14.20;99.90;;;;;;5067928;28;20418;-39
2022/11/07 12:49:50;;;;;;;4.27;2.03;;;14.20;99.90;;;;;;5067976;28;20403;-39
2022/11/07 12:52:46;;;;;;;7.87;2.60;;;14.30;99.90;;;;;;5068118;28;20763;-39
2022/11/07 12:55:50;;;;;;;6.33;2.30;;;14.30;99.90;;;;;;5068348;28;20395;-39
2022/11/07 12:58:27;;;;;;;5.57;2.23;;;14.40;99.90;;;;;;5068460;28;20403;-38
2022/11/07 13:00:54;;;;;;;6.43;3.57;;;14.40;99.90;;;;;;5067923;28;20507;-39
2022/11/07 13:03:44;;;;;;;4.23;2.10;;;14.50;99.90;;;;;;5067910;28;20403;-38
2022/11/07 13:06:22;;;;;;;8.73;2.70;;;14.50;99.90;;;;;;5083605;28;20443;-39
2022/11/07 13:09:32;;;;;;;3.83;1.70;;;14.60;99.90;;;;;;5067634;28;20406;-39
2022/11/07 13:12:21;;;;;;;5.23;2.00;;;14.60;99.90;;;;;;5064136;28;20577;-39
2022/11/07 13:14:47;;;;;;;5.43;2.50;;;14.60;99.90;;;;;;5068023;28;20446;-39
2022/11/07 13:17:36;;;;;;;8.80;2.63;;;14.70;99.90;;;;;;5067783;28;20419;-40